(°C)
11°
13°
(°C)
ENE
NE
ENE
L
SE
SSE
SSE
(km/h)
7-14
8-15
7-16
8-17
9-19
13-23
15-27
(mm)
0
0
0
0
0
0
0
(%)
0
0
0
0
0
0
0

Elevação do sol

/ -1.8°
sun-icon
UV 2
07:27
17:41
Quarto Minguante (266°)
23:05
14:43

METAR para Ivanka pri Dunaji (LZIB)

Hora Condições Temperatura/
Ponto de condensação
Vento Visibilidade Tempo Nuvens Pressão Mudança Bruto
IFR 3°C / 2°C 30º 6kt 4000m patches Fog Mist Vertical Visibility of 0ft. 1027 Temporary: Visibility 1400. patches Fog . LZIB 280500Z 03006KT 4000 1000NE BR BCFG FEW010 03/02 Q1027 TEMPO 1400 BCFG
MVFR 3°C / 2°C 40º 3kt 8000m patches Fog Vertical Visibility of 0ft. 1027 Temporary: Visibility 1400. patches Fog . LZIB 280430Z 04003KT 8000 1800NE BCFG NSC 03/02 Q1027 TEMPO 1400 BCFG
MVFR 3°C / 2°C 40º 5kt 8000m patches Fog Vertical Visibility of 0ft. 1027 No Significant change LZIB 280400Z 04005KT 8000 1900NE BCFG NSC 03/02 Q1027 NOSIG
MVFR 3°C / 2°C 40º 4kt 8000m patches Fog Vertical Visibility of 0ft. 1027 - LZIB 280330Z 04004KT 8000 1800NE BCFG NSC 03/02 Q1027
MVFR 3°C / 2°C 40º 4kt 8000m patches Fog Vertical Visibility of 0ft. 1027 - LZIB 280300Z 04004KT 8000 2500SE BCFG NSC 03/02 Q1027
MVFR 3°C / 3°C 30º 3kt 8000m patches Fog Vertical Visibility of 0ft. 1027 - LZIB 280230Z 03003KT 8000 2400NE BCFG NSC 03/03 Q1027
MVFR 4°C / 3°C 40º 4kt 8000m patches Fog Vertical Visibility of 0ft. 1027 - LZIB 280200Z 04004KT 8000 1400NE BCFG NSC 04/03 Q1027
VFR 4°C / 4°C 30º 4kt 9000m - Clear 1027 - LZIB 280130Z 03004KT 9000 NSC 04/04 Q1027
MVFR 3°C / 2°C 40º 4kt 8000m shallow Fog Vertical Visibility of 0ft. 1027 - LZIB 280100Z 04004KT 8000 MIFG NSC 03/02 Q1027
MVFR 3°C / 2°C 40º 5kt 8000m shallow Fog Vertical Visibility of 0ft. 1027 - LZIB 280030Z 04005KT 8000 MIFG NSC 03/02 Q1027
MVFR 4°C / 3°C 30º 4kt 8000m shallow Fog Vertical Visibility of 0ft. 1027 - LZIB 280000Z 03004KT 8000 MIFG NSC 04/03 Q1027
MVFR 5°C / 4°C 10º 5kt 8000m patches Fog Vertical Visibility of 0ft. 1027 - LZIB 272330Z 01005KT 8000 1500NE BCFG NSC 05/04 Q1027
VFR 5°C / 5°C 10º 3kt 9000m patches Fog Vertical Visibility of 0ft. 1027 - LZIB 272300Z 01003KT 9000 0400NE BCFG FEW009 05/05 Q1027
VFR 5°C / 4°C 30º 2kt 9000m patches Fog Vertical Visibility of 0ft.
Scattered Clouds 600ft
1027 - LZIB 272230Z 03002KT 9000 1200NE BCFG FEW002 SCT006 05/04 Q1027
VFR 5°C / 5°C 360º 3kt >10km patches Fog Vertical Visibility of 0ft. 1027 - LZIB 272200Z 36003KT 9999 0300NW BCFG FEW006 05/05 Q1027
VFR 5°C / 4°C 360º 2kt >10km patches Fog Vertical Visibility of 0ft. 1027 - LZIB 272130Z 36002KT 9999 0200NW BCFG NSC 05/04 Q1027
VFR 6°C / 5°C variable 1kt >10km patches Fog Vertical Visibility of 0ft. 1028 - LZIB 272100Z VRB01KT 9999 0400NE BCFG FEW004 06/05 Q1028
VFR 6°C / 5°C 40º 4kt >10km patches Fog Vertical Visibility of 0ft. 1027 - LZIB 272030Z 04004KT 9999 0800NE BCFG NSC 06/05 Q1027
VFR 6°C / 5°C 10º 3kt >10km. Runway 31: Visual range is 2000m. Runway 22: Visual range is 1000m and decreasing. patches Fog Vertical Visibility of 0ft. 1027 - LZIB 272000Z 01003KT 9999 0200NW R31/P2000N R22/1000D BCFG FEW003 06/05 Q1027
VFR 6°C / 6°C 350º 2kt >10km patches Fog Vertical Visibility of 0ft. 1027 - LZIB 271930Z 35002KT 9999 0300SW BCFG NSC 06/06 Q1027
VFR 6°C / 5°C 340º 2kt >10km shallow Fog Vertical Visibility of 0ft. 1027 - LZIB 271900Z 34002KT 9999 MIFG NSC 06/05 Q1027
VFR 6°C / 5°C 330º 2kt >10km shallow Fog Vertical Visibility of 0ft. 1027 - LZIB 271830Z 33002KT 9999 MIFG NSC 06/05 Q1027
VFR 8°C / 5°C 350º 2kt >10km - Clouds and Visibility OK 1027 No Significant change LZIB 271800Z 35002KT CAVOK 08/05 Q1027 NOSIG
VFR 9°C / 6°C 350º 3kt >10km - Clouds and Visibility OK 1027 No Significant change LZIB 271730Z 35003KT CAVOK 09/06 Q1027 NOSIG

IFR

3°C / 2°C

[Mais]
Vento 30º 6kt
Visibilidade 4000m
Tempo patches Fog Mist
Nuvens Vertical Visibility of 0ft.
Pressão 1027
Mudança Temporary: Visibility 1400. patches Fog .
Bruto LZIB 280500Z 03006KT 4000 1000NE BR BCFG FEW010 03/02 Q1027 TEMPO 1400 BCFG

MVFR

3°C / 2°C

[Mais]
Vento 40º 3kt
Visibilidade 8000m
Tempo patches Fog
Nuvens Vertical Visibility of 0ft.
Pressão 1027
Mudança Temporary: Visibility 1400. patches Fog .
Bruto LZIB 280430Z 04003KT 8000 1800NE BCFG NSC 03/02 Q1027 TEMPO 1400 BCFG

MVFR

3°C / 2°C

[Mais]
Vento 40º 5kt
Visibilidade 8000m
Tempo patches Fog
Nuvens Vertical Visibility of 0ft.
Pressão 1027
Mudança No Significant change
Bruto LZIB 280400Z 04005KT 8000 1900NE BCFG NSC 03/02 Q1027 NOSIG

MVFR

3°C / 2°C

[Mais]
Vento 40º 4kt
Visibilidade 8000m
Tempo patches Fog
Nuvens Vertical Visibility of 0ft.
Pressão 1027
Mudança -
Bruto LZIB 280330Z 04004KT 8000 1800NE BCFG NSC 03/02 Q1027

MVFR

3°C / 2°C

[Mais]
Vento 40º 4kt
Visibilidade 8000m
Tempo patches Fog
Nuvens Vertical Visibility of 0ft.
Pressão 1027
Mudança -
Bruto LZIB 280300Z 04004KT 8000 2500SE BCFG NSC 03/02 Q1027

MVFR

3°C / 3°C

[Mais]
Vento 30º 3kt
Visibilidade 8000m
Tempo patches Fog
Nuvens Vertical Visibility of 0ft.
Pressão 1027
Mudança -
Bruto LZIB 280230Z 03003KT 8000 2400NE BCFG NSC 03/03 Q1027

MVFR

4°C / 3°C

[Mais]
Vento 40º 4kt
Visibilidade 8000m
Tempo patches Fog
Nuvens Vertical Visibility of 0ft.
Pressão 1027
Mudança -
Bruto LZIB 280200Z 04004KT 8000 1400NE BCFG NSC 04/03 Q1027

VFR

4°C / 4°C

[Mais]
Vento 30º 4kt
Visibilidade 9000m
Tempo -
Nuvens Clear
Pressão 1027
Mudança -
Bruto LZIB 280130Z 03004KT 9000 NSC 04/04 Q1027

MVFR

3°C / 2°C

[Mais]
Vento 40º 4kt
Visibilidade 8000m
Tempo shallow Fog
Nuvens Vertical Visibility of 0ft.
Pressão 1027
Mudança -
Bruto LZIB 280100Z 04004KT 8000 MIFG NSC 03/02 Q1027

MVFR

3°C / 2°C

[Mais]
Vento 40º 5kt
Visibilidade 8000m
Tempo shallow Fog
Nuvens Vertical Visibility of 0ft.
Pressão 1027
Mudança -
Bruto LZIB 280030Z 04005KT 8000 MIFG NSC 03/02 Q1027

MVFR

4°C / 3°C

[Mais]
Vento 30º 4kt
Visibilidade 8000m
Tempo shallow Fog
Nuvens Vertical Visibility of 0ft.
Pressão 1027
Mudança -
Bruto LZIB 280000Z 03004KT 8000 MIFG NSC 04/03 Q1027

MVFR

5°C / 4°C

[Mais]
Vento 10º 5kt
Visibilidade 8000m
Tempo patches Fog
Nuvens Vertical Visibility of 0ft.
Pressão 1027
Mudança -
Bruto LZIB 272330Z 01005KT 8000 1500NE BCFG NSC 05/04 Q1027

VFR

5°C / 5°C

[Mais]
Vento 10º 3kt
Visibilidade 9000m
Tempo patches Fog
Nuvens Vertical Visibility of 0ft.
Pressão 1027
Mudança -
Bruto LZIB 272300Z 01003KT 9000 0400NE BCFG FEW009 05/05 Q1027

VFR

5°C / 4°C

[Mais]
Vento 30º 2kt
Visibilidade 9000m
Tempo patches Fog
Nuvens Vertical Visibility of 0ft.
Scattered Clouds 600ft
Pressão 1027
Mudança -
Bruto LZIB 272230Z 03002KT 9000 1200NE BCFG FEW002 SCT006 05/04 Q1027

VFR

5°C / 5°C

[Mais]
Vento 360º 3kt
Visibilidade >10km
Tempo patches Fog
Nuvens Vertical Visibility of 0ft.
Pressão 1027
Mudança -
Bruto LZIB 272200Z 36003KT 9999 0300NW BCFG FEW006 05/05 Q1027

VFR

5°C / 4°C

[Mais]
Vento 360º 2kt
Visibilidade >10km
Tempo patches Fog
Nuvens Vertical Visibility of 0ft.
Pressão 1027
Mudança -
Bruto LZIB 272130Z 36002KT 9999 0200NW BCFG NSC 05/04 Q1027

VFR

6°C / 5°C

[Mais]
Vento variable 1kt
Visibilidade >10km
Tempo patches Fog
Nuvens Vertical Visibility of 0ft.
Pressão 1028
Mudança -
Bruto LZIB 272100Z VRB01KT 9999 0400NE BCFG FEW004 06/05 Q1028

VFR

6°C / 5°C

[Mais]
Vento 40º 4kt
Visibilidade >10km
Tempo patches Fog
Nuvens Vertical Visibility of 0ft.
Pressão 1027
Mudança -
Bruto LZIB 272030Z 04004KT 9999 0800NE BCFG NSC 06/05 Q1027

VFR

6°C / 5°C

[Mais]
Vento 10º 3kt
Visibilidade >10km. Runway 31: Visual range is 2000m. Runway 22: Visual range is 1000m and decreasing.
Tempo patches Fog
Nuvens Vertical Visibility of 0ft.
Pressão 1027
Mudança -
Bruto LZIB 272000Z 01003KT 9999 0200NW R31/P2000N R22/1000D BCFG FEW003 06/05 Q1027

VFR

6°C / 6°C

[Mais]
Vento 350º 2kt
Visibilidade >10km
Tempo patches Fog
Nuvens Vertical Visibility of 0ft.
Pressão 1027
Mudança -
Bruto LZIB 271930Z 35002KT 9999 0300SW BCFG NSC 06/06 Q1027

VFR

6°C / 5°C

[Mais]
Vento 340º 2kt
Visibilidade >10km
Tempo shallow Fog
Nuvens Vertical Visibility of 0ft.
Pressão 1027
Mudança -
Bruto LZIB 271900Z 34002KT 9999 MIFG NSC 06/05 Q1027

VFR

6°C / 5°C

[Mais]
Vento 330º 2kt
Visibilidade >10km
Tempo shallow Fog
Nuvens Vertical Visibility of 0ft.
Pressão 1027
Mudança -
Bruto LZIB 271830Z 33002KT 9999 MIFG NSC 06/05 Q1027

VFR

8°C / 5°C

[Mais]
Vento 350º 2kt
Visibilidade >10km
Tempo -
Nuvens Clouds and Visibility OK
Pressão 1027
Mudança No Significant change
Bruto LZIB 271800Z 35002KT CAVOK 08/05 Q1027 NOSIG

VFR

9°C / 6°C

[Mais]
Vento 350º 3kt
Visibilidade >10km
Tempo -
Nuvens Clouds and Visibility OK
Pressão 1027
Mudança No Significant change
Bruto LZIB 271730Z 35003KT CAVOK 09/06 Q1027 NOSIG

TAF para Ivanka pri Dunaji (LZIB)

From till


From till Wind variable 2kt. Visibility 8000m. Few Clouds 300ft.
Temporarly from till Visibility 2000m. patches Fog . Scattered Clouds 200ft.
With 30% probability, Temporarly from till Visibility 193.121m. Fog . Broken Clouds 200ft.
Becoming from till Wind 140º 9kt. Visibility 10km or more. Nil Significant Cloud.

Bruto: TAF LZIB 280500Z 2806/2906 VRB02KT 8000 FEW003 TEMPO 2806/2808 2000 BCFG SCT002 PROB30 TEMPO 2806/2808 0200 FG BKN002 BECMG 2808/2810 14009KT CAVOK

Imagens atuais de satélite e precipitação para Ivanka pri Dunaji, República Eslovaca

O marcador de lugar é colocado em Ivanka pri Dunaji. [Mais]

A imagem de satélite em tempo real combina luz visível durante o dia com radiação infravermelha durante a noite. À noite, a imagem não é escura, pois a radiação infravermelha pode detectar diferenças de temperatura. Infelizmente, nuvens baixas e neblina são difíceis de distinguir das temperaturas do solo e, portanto, podem ser quase invisíveis durante a noite. As imagens de satélite Meteosat para a Europa são atualizadas em tempo real a cada 5 minutos. GOES-16/GOES-17 ( América do Norte e do Sul) e Himawari (Ásia) são atualizadas a cada 10 minutos.

A precipitação é estimada por radares e satélites. A estimativa da precipitação noturna por satélites é menos precisa do que durante o dia. Cruzes laranjas identificam lugares onde relâmpagos foram detetados (em Europa).

Copyright 2021 EUMETSAT / meteoblue. Dados de relâmpagos fornecidos por nowcast.

Radar e precipitação nowcast para Ivanka pri Dunaji

Chuvisco
Leve
Moderado
Forte
Muito forte
Granizo

O marcador do lugar é colocado em Ivanka pri Dunaji. Esta animação mostra o radar de precipitação para a última hora, assim como a 1h previsão. A queda de neve pode ser invisível para o radar. A intensidade da precipitação é codificada por cores, variando do azul claro ao laranja.